Time;durP1;ratioP1;P1;durP2;ratioP2;P2;SDS_P1;SDS_P2;PMS_P1;PMS_P2;Temp;Humidity;BMP_temperature;BMP_pressure;BME280_temperature;BME280_humidity;BME280_pressure;Samples;Min_cycle;Max_cycle;Signal;HPM_P1;HPM_P2
2022/07/22 00:00:42;;;;;;;4.20;2.33;;;30.60;53.10;;;;;;10791883;33;20087;-72
2022/07/22 00:06:44;;;;;;;4.55;2.50;;;30.50;53.50;;;;;;10791694;33;20024;-72
2022/07/22 00:12:46;;;;;;;2.58;1.95;;;30.40;53.50;;;;;;10795680;33;20025;-72
2022/07/22 00:18:48;;;;;;;5.97;2.85;;;30.30;53.90;;;;;;10791374;33;20011;-71
2022/07/22 00:24:50;;;;;;;3.08;2.03;;;30.30;54.20;;;;;;10794470;33;20040;-72
2022/07/22 00:30:53;;;;;;;4.05;2.72;;;30.20;54.30;;;;;;10790760;33;20063;-72
2022/07/22 00:37:12;;;;;;;3.37;2.33;;;30.00;54.30;;;;;;10794779;33;20024;-72
2022/07/22 00:43:14;;;;;;;3.83;2.42;;;30.00;54.20;;;;;;10794552;33;20058;-72
2022/07/22 00:49:16;;;;;;;3.17;1.80;;;29.90;54.30;;;;;;10794336;33;20024;-72
2022/07/22 00:55:18;;;;;;;4.97;1.80;;;29.80;54.40;;;;;;10794144;33;20401;-72
2022/07/22 01:01:21;;;;;;;4.12;2.78;;;29.60;54.70;;;;;;10793859;33;20020;-72
2022/07/22 01:07:41;;;;;;;5.00;2.92;;;29.60;55.00;;;;;;10793940;33;20071;-72
2022/07/22 01:13:45;;;;;;;3.30;2.28;;;29.60;54.90;;;;;;10793721;33;20475;-72
2022/07/22 01:19:48;;;;;;;3.42;2.83;;;29.50;55.00;;;;;;10793456;33;20028;-72
2022/07/22 01:25:50;;;;;;;4.93;2.37;;;29.30;55.30;;;;;;10793503;33;20361;-72
2022/07/22 01:31:52;;;;;;;5.80;2.85;;;29.30;55.30;;;;;;10793215;33;20086;-72
2022/07/22 01:37:54;;;;;;;3.50;2.67;;;29.30;55.30;;;;;;10801539;33;20424;-72
2022/07/22 01:43:57;;;;;;;3.20;2.20;;;29.20;55.30;;;;;;10805282;33;20070;-72
2022/07/22 01:49:59;;;;;;;4.20;2.67;;;29.30;55.40;;;;;;10805125;33;20036;-73
2022/07/22 01:56:01;;;;;;;4.25;2.65;;;29.10;55.50;;;;;;10805161;33;20032;-73
2022/07/22 02:02:05;;;;;;;5.53;3.10;;;29.10;55.70;;;;;;10805057;33;20020;-73
2022/07/22 02:08:10;;;;;;;4.72;3.05;;;29.20;55.60;;;;;;10804881;33;20517;-72
2022/07/22 02:14:13;;;;;;;4.30;2.47;;;29.10;55.60;;;;;;10800785;33;20074;-72
2022/07/22 02:20:17;;;;;;;4.35;2.55;;;29.00;55.60;;;;;;10804621;33;20054;-72
2022/07/22 02:26:19;;;;;;;4.03;1.85;;;29.00;55.60;;;;;;10803789;33;20021;-72
2022/07/22 02:32:21;;;;;;;5.72;3.58;;;28.90;55.70;;;;;;10804524;33;20029;-72
2022/07/22 02:38:23;;;;;;;5.90;3.37;;;28.80;55.90;;;;;;10804361;33;20082;-72
2022/07/22 02:44:25;;;;;;;4.60;3.15;;;28.80;55.90;;;;;;10804312;33;20393;-72
2022/07/22 02:50:27;;;;;;;3.33;2.45;;;28.80;55.90;;;;;;10798771;33;20393;-72
2022/07/22 02:56:29;;;;;;;5.57;3.45;;;28.60;56.10;;;;;;10798311;33;20024;-72
2022/07/22 03:02:32;;;;;;;5.47;3.58;;;28.60;56.40;;;;;;10798251;33;20397;-72
2022/07/22 03:08:34;;;;;;;8.05;4.25;;;28.70;56.30;;;;;;10784989;33;20024;-72
2022/07/22 03:14:36;;;;;;;4.37;2.90;;;28.60;56.30;;;;;;10796102;33;20337;-72
2022/07/22 03:20:38;;;;;;;8.27;2.92;;;28.40;56.50;;;;;;10794424;33;20036;-73
2022/07/22 03:26:40;;;;;;;4.00;2.53;;;28.40;56.50;;;;;;10797307;33;20020;-72
2022/07/22 03:32:45;;;;;;;6.35;3.47;;;28.30;56.50;;;;;;10797050;33;20348;-72
2022/07/22 03:38:48;;;;;;;3.97;2.75;;;28.40;56.40;;;;;;10797011;33;20016;-72
2022/07/22 03:44:50;;;;;;;6.35;4.37;;;28.20;56.50;;;;;;10796588;33;20047;-72
2022/07/22 03:50:53;;;;;;;7.53;4.35;;;28.10;56.70;;;;;;10796405;33;20017;-72
2022/07/22 03:56:55;;;;;;;6.07;3.90;;;28.20;56.60;;;;;;10796358;33;20047;-72
2022/07/22 04:03:22;;;;;;;10.65;4.60;;;28.30;56.60;;;;;;10795175;33;20024;-72
2022/07/22 04:09:25;;;;;;;14.13;5.37;;;28.20;56.60;;;;;;10795993;33;20047;-72
2022/07/22 04:15:27;;;;;;;6.37;4.32;;;28.20;56.60;;;;;;10795606;33;20324;-72
2022/07/22 04:21:30;;;;;;;7.45;4.18;;;28.30;56.50;;;;;;10795353;33;20392;-72
2022/07/22 04:27:33;;;;;;;5.43;3.53;;;28.00;56.70;;;;;;10814109;27;20089;-72
2022/07/22 04:33:40;;;;;;;5.40;3.65;;;28.00;56.80;;;;;;10868805;32;20023;-72
2022/07/22 04:39:42;;;;;;;12.50;3.77;;;28.00;56.90;;;;;;10868665;32;20020;-72
2022/07/22 04:45:45;;;;;;;5.80;3.40;;;28.10;56.80;;;;;;10865277;32;20023;-72
2022/07/22 04:51:48;;;;;;;5.97;3.87;;;28.20;56.70;;;;;;10868187;32;20020;-72
2022/07/22 04:57:50;;;;;;;13.73;3.47;;;28.30;56.50;;;;;;10868025;32;20024;-72
2022/07/22 05:03:54;;;;;;;5.32;4.20;;;28.20;56.50;;;;;;10867883;32;20049;-72
2022/07/22 05:09:56;;;;;;;8.25;4.20;;;28.20;56.60;;;;;;10867342;32;20363;-72
2022/07/22 05:16:06;;;;;;;6.32;3.95;;;28.30;56.50;;;;;;10867246;32;20028;-72
2022/07/22 05:22:14;;;;;;;8.32;3.72;;;28.30;56.40;;;;;;10866450;32;20027;-72
2022/07/22 05:28:17;;;;;;;3.97;3.30;;;28.40;56.10;;;;;;10867189;32;20054;-72
2022/07/22 05:34:19;;;;;;;9.52;3.92;;;28.50;56.00;;;;;;10862758;32;20024;-72
2022/07/22 05:40:23;;;;;;;7.12;4.32;;;28.50;55.80;;;;;;10866895;32;20055;-72
2022/07/22 05:46:25;;;;;;;5.25;3.87;;;28.60;55.70;;;;;;10849438;32;20035;-73
2022/07/22 05:52:27;;;;;;;5.37;3.62;;;28.60;55.50;;;;;;10866843;32;20019;-73
2022/07/22 05:58:30;;;;;;;5.22;3.60;;;28.80;55.30;;;;;;10866607;32;20032;-73
2022/07/22 06:04:32;;;;;;;5.43;3.33;;;28.90;55.00;;;;;;10866494;32;20054;-73
2022/07/22 06:10:34;;;;;;;5.35;3.33;;;29.10;54.80;;;;;;10866462;32;20028;-73
2022/07/22 06:16:37;;;;;;;4.68;3.42;;;29.30;54.40;;;;;;10862751;32;20027;-70
2022/07/22 06:22:41;;;;;;;5.55;3.50;;;29.50;54.10;;;;;;10842487;32;20062;-70
2022/07/22 06:28:44;;;;;;;4.70;2.80;;;29.70;53.80;;;;;;10868923;32;20054;-71
2022/07/22 06:34:46;;;;;;;6.32;4.20;;;29.80;53.40;;;;;;10872918;32;20027;-70
2022/07/22 06:40:49;;;;;;;4.85;3.20;;;29.80;53.10;;;;;;10868530;32;20041;-70
2022/07/22 06:46:54;;;;;;;5.62;3.80;;;29.90;52.80;;;;;;10868095;32;20054;-71
2022/07/22 06:52:56;;;;;;;5.57;3.45;;;30.00;52.70;;;;;;10868991;32;20359;-71
2022/07/22 06:58:59;;;;;;;5.07;2.60;;;30.30;52.60;;;;;;10868019;32;20054;-70
2022/07/22 07:05:02;;;;;;;4.68;3.15;;;30.40;52.30;;;;;;10868181;32;20039;-71
2022/07/22 07:11:04;;;;;;;6.35;4.37;;;30.50;51.90;;;;;;10867511;32;20058;-71
2022/07/22 07:17:06;;;;;;;7.05;3.83;;;30.70;51.80;;;;;;10866662;32;20020;-71
2022/07/22 07:23:09;;;;;;;5.90;3.47;;;30.70;51.50;;;;;;10867700;32;20027;-71
2022/07/22 07:29:11;;;;;;;7.55;3.47;;;30.90;51.10;;;;;;10866808;32;20320;-71
2022/07/22 07:35:14;;;;;;;5.10;3.67;;;31.10;50.80;;;;;;10866453;32;20028;-71
2022/07/22 07:41:17;;;;;;;5.18;3.00;;;31.30;50.40;;;;;;10867338;32;20024;-71
2022/07/22 07:47:22;;;;;;;3.97;2.75;;;31.40;50.00;;;;;;10865349;32;20058;-71
2022/07/22 07:53:26;;;;;;;6.32;4.32;;;31.50;49.30;;;;;;10869953;32;20027;-71
2022/07/22 07:59:28;;;;;;;5.62;3.30;;;31.70;48.90;;;;;;10867936;32;20058;-70
2022/07/22 08:05:31;;;;;;;3.90;3.28;;;31.80;48.80;;;;;;10869431;32;20032;-71
2022/07/22 08:11:34;;;;;;;8.95;3.87;;;32.00;48.60;;;;;;10865558;32;20054;-70
2022/07/22 08:17:37;;;;;;;6.62;3.17;;;32.10;48.20;;;;;;10854037;32;20020;-71
2022/07/22 08:23:39;;;;;;;4.93;3.20;;;32.30;47.70;;;;;;10869045;32;20028;-71
2022/07/22 08:29:43;;;;;;;6.53;4.53;;;32.30;47.20;;;;;;10866476;32;20024;-70
2022/07/22 08:35:45;;;;;;;6.68;4.45;;;32.50;46.70;;;;;;10853050;32;20040;-71
2022/07/22 08:41:47;;;;;;;5.72;3.95;;;32.60;46.50;;;;;;10865502;32;20062;-71
2022/07/22 08:47:51;;;;;;;6.62;3.58;;;32.70;46.10;;;;;;10864275;32;20435;-71
2022/07/22 08:53:55;;;;;;;5.60;3.90;;;32.80;46.00;;;;;;10832033;32;20039;-71
2022/07/22 09:00:00;;;;;;;8.63;3.90;;;33.00;45.50;;;;;;10840387;32;20050;-70
2022/07/22 09:06:04;;;;;;;7.82;4.25;;;33.10;45.20;;;;;;10840529;32;20082;-71
2022/07/22 09:12:08;;;;;;;6.95;5.15;;;33.30;44.80;;;;;;10830377;32;20028;-70
2022/07/22 09:18:10;;;;;;;6.53;4.80;;;33.40;43.90;;;;;;10826401;33;20032;-71
2022/07/22 09:24:32;;;;;;;8.45;5.18;;;33.50;43.90;;;;;;10829639;32;20046;-71
2022/07/22 09:30:56;;;;;;;6.10;4.62;;;33.70;43.30;;;;;;10829470;32;20058;-71
2022/07/22 09:37:00;;;;;;;5.43;3.95;;;33.90;42.80;;;;;;10826732;32;20032;-70
2022/07/22 09:43:05;;;;;;;9.10;4.00;;;34.00;42.50;;;;;;10828451;33;20197;-71
2022/07/22 09:49:08;;;;;;;9.27;4.90;;;34.20;42.10;;;;;;10825716;33;20028;-70
2022/07/22 09:55:11;;;;;;;7.78;4.78;;;34.30;40.10;;;;;;10827378;32;20046;-71
2022/07/22 10:01:14;;;;;;;5.82;3.53;;;34.40;39.70;;;;;;10837062;32;20075;-71
2022/07/22 10:07:16;;;;;;;25.15;5.75;;;34.60;39.30;;;;;;10836398;32;20055;-70
2022/07/22 10:13:19;;;;;;;9.65;3.53;;;34.80;38.70;;;;;;10833892;32;20032;-70
2022/07/22 10:19:22;;;;;;;5.75;4.43;;;34.80;39.60;;;;;;10836439;32;20020;-71
2022/07/22 10:25:29;;;;;;;5.95;3.92;;;35.00;38.60;;;;;;10836073;32;20035;-71
2022/07/22 10:31:32;;;;;;;5.32;3.53;;;35.10;38.30;;;;;;10822969;32;20397;-72
2022/07/22 10:37:40;;;;;;;4.05;2.95;;;35.30;37.40;;;;;;10833920;32;20400;-71
2022/07/22 10:43:42;;;;;;;5.40;3.77;;;35.60;36.70;;;;;;10835577;32;20028;-71
2022/07/22 10:49:45;;;;;;;4.35;2.95;;;35.90;35.90;;;;;;10835504;32;20054;-71
2022/07/22 10:56:05;;;;;;;5.97;3.25;;;36.20;34.60;;;;;;10831171;33;20050;-71
2022/07/22 11:02:08;;;;;;;6.25;3.45;;;36.30;34.20;;;;;;10831872;32;20055;-71
2022/07/22 11:08:10;;;;;;;6.45;3.30;;;36.40;33.50;;;;;;10832879;32;20054;-71
2022/07/22 11:14:16;;;;;;;6.07;3.37;;;36.60;33.60;;;;;;10830550;33;20050;-72
2022/07/22 11:20:19;;;;;;;4.83;2.77;;;36.90;33.00;;;;;;10830226;33;20345;-72
2022/07/22 11:26:42;;;;;;;6.25;3.50;;;37.10;32.40;;;;;;10834120;32;20035;-72
2022/07/22 11:32:44;;;;;;;5.57;3.83;;;37.40;32.20;;;;;;10830667;32;20075;-71
2022/07/22 11:38:49;;;;;;;5.47;3.60;;;37.70;31.30;;;;;;10830216;32;20039;-71
2022/07/22 11:44:52;;;;;;;7.47;2.95;;;37.70;30.80;;;;;;10818852;32;20040;-72
2022/07/22 11:51:05;;;;;;;4.05;2.72;;;38.00;31.00;;;;;;10832973;32;20379;-70
2022/07/22 11:57:07;;;;;;;6.82;3.45;;;38.30;30.90;;;;;;10831338;32;20054;-71
2022/07/22 12:03:10;;;;;;;4.82;3.45;;;38.40;30.40;;;;;;10829572;32;20031;-70
2022/07/22 12:09:19;;;;;;;6.37;4.40;;;38.50;30.50;;;;;;10830372;32;20081;-71
2022/07/22 12:15:22;;;;;;;7.72;5.03;;;38.60;30.50;;;;;;10832510;32;20051;-71
2022/07/22 12:21:27;;;;;;;6.28;3.83;;;38.70;30.30;;;;;;10829278;32;20039;-71
2022/07/22 12:28:01;;;;;;;7.72;4.12;;;38.70;30.20;;;;;;10861353;27;20305;-72
2022/07/22 12:34:04;;;;;;;6.60;5.15;;;38.70;30.20;;;;;;10899557;32;20031;-72
2022/07/22 12:40:23;;;;;;;8.38;4.45;;;38.80;29.70;;;;;;10885733;32;20059;-72
2022/07/22 12:46:25;;;;;;;5.62;4.10;;;38.90;29.60;;;;;;10890065;32;20027;-69
2022/07/22 12:52:30;;;;;;;6.00;2.95;;;38.80;29.10;;;;;;10897513;32;20101;-72
2022/07/22 12:59:01;;;;;;;5.47;3.72;;;38.80;29.00;;;;;;10889857;32;20054;-71
2022/07/22 13:05:10;;;;;;;20.62;3.80;;;38.80;28.10;;;;;;10898220;32;20065;-71
2022/07/22 13:11:13;;;;;;;4.65;3.85;;;38.90;28.10;;;;;;10899051;32;20031;-70
2022/07/22 13:17:15;;;;;;;5.43;3.30;;;38.80;27.70;;;;;;10897766;32;20407;-71
2022/07/22 13:23:17;;;;;;;6.85;4.28;;;38.80;27.70;;;;;;10900801;32;20280;-71
2022/07/22 13:29:19;;;;;;;11.45;3.45;;;38.90;27.30;;;;;;10900614;32;20030;-70
2022/07/22 13:35:22;;;;;;;5.87;3.97;;;38.80;27.70;;;;;;10900371;32;20387;-72
2022/07/22 13:41:31;;;;;;;5.65;3.47;;;38.90;27.60;;;;;;10896410;32;20113;-72
2022/07/22 13:47:34;;;;;;;6.40;2.67;;;38.90;27.50;;;;;;10898271;32;20380;-71
2022/07/22 13:53:37;;;;;;;4.53;3.28;;;38.90;27.50;;;;;;10898175;32;20418;-72
2022/07/22 13:59:40;;;;;;;5.25;3.08;;;38.70;27.40;;;;;;10898872;32;20477;-72
2022/07/22 14:05:43;;;;;;;3.90;2.78;;;38.80;27.30;;;;;;10896516;32;20073;-71
2022/07/22 14:11:45;;;;;;;6.75;4.37;;;38.80;27.10;;;;;;10895704;32;20078;-71
2022/07/22 14:17:52;;;;;;;5.68;4.37;;;38.80;26.50;;;;;;10897708;32;20065;-71
2022/07/22 14:23:55;;;;;;;7.05;4.78;;;38.60;26.30;;;;;;10888884;32;20058;-71
2022/07/22 14:30:18;;;;;;;5.53;3.97;;;38.70;26.50;;;;;;10900066;32;20023;-71
2022/07/22 14:37:01;;;;;;;5.70;4.93;;;38.80;26.20;;;;;;10899715;32;20069;-71
2022/07/22 14:43:07;;;;;;;6.55;4.50;;;38.80;25.90;;;;;;10886648;32;20074;-71
2022/07/22 14:49:17;;;;;;;8.15;5.12;;;38.60;26.10;;;;;;10906116;32;20039;-72
2022/07/22 14:55:19;;;;;;;12.65;5.37;;;38.70;25.80;;;;;;10905107;32;20063;-72
2022/07/22 15:01:21;;;;;;;6.22;4.55;;;38.60;25.40;;;;;;10909389;32;20032;-72
2022/07/22 15:07:23;;;;;;;8.70;5.68;;;38.50;25.20;;;;;;10909369;32;20023;-72
2022/07/22 15:13:26;;;;;;;9.43;7.22;;;38.50;25.90;;;;;;10909177;32;20038;-72
2022/07/22 15:19:28;;;;;;;7.53;5.97;;;38.60;25.70;;;;;;10908734;32;20053;-72
2022/07/22 15:25:31;;;;;;;9.88;6.75;;;38.60;26.90;;;;;;10904549;32;20320;-73
2022/07/22 15:31:34;;;;;;;8.90;7.82;;;38.60;27.10;;;;;;10908475;32;20053;-72
2022/07/22 15:37:37;;;;;;;13.62;8.45;;;38.50;27.00;;;;;;10908365;32;20027;-72
2022/07/22 15:43:40;;;;;;;13.10;8.55;;;38.60;27.00;;;;;;10908513;32;20415;-72
2022/07/22 15:49:42;;;;;;;11.70;8.43;;;38.60;27.20;;;;;;10908322;32;20039;-72
2022/07/22 15:55:45;;;;;;;14.18;10.90;;;38.60;27.40;;;;;;10890751;32;20097;-73
2022/07/22 16:01:47;;;;;;;10.57;7.97;;;38.70;27.20;;;;;;10870047;32;20050;-72
2022/07/22 16:07:49;;;;;;;11.52;8.50;;;38.60;27.50;;;;;;10873940;32;20050;-72
2022/07/22 16:13:51;;;;;;;10.88;9.73;;;38.70;27.40;;;;;;10906845;32;20042;-72
2022/07/22 16:19:53;;;;;;;10.57;7.55;;;38.70;27.30;;;;;;10906658;32;20308;-72
2022/07/22 16:25:56;;;;;;;13.30;8.48;;;38.80;27.30;;;;;;10892972;32;20311;-72
2022/07/22 16:31:58;;;;;;;10.20;7.22;;;38.70;27.50;;;;;;10906315;32;20046;-72
2022/07/22 16:38:00;;;;;;;7.50;6.10;;;38.60;28.00;;;;;;10906071;32;20045;-72
2022/07/22 16:44:02;;;;;;;8.75;5.47;;;38.60;27.90;;;;;;10905544;32;20050;-73
2022/07/22 16:50:06;;;;;;;8.93;6.97;;;38.60;28.00;;;;;;10905461;32;20054;-72
2022/07/22 16:56:08;;;;;;;7.12;5.65;;;38.50;28.10;;;;;;10904311;32;20031;-71
2022/07/22 17:02:12;;;;;;;8.32;6.55;;;38.40;28.50;;;;;;10891951;32;20027;-71
2022/07/22 17:08:14;;;;;;;8.38;6.78;;;38.40;28.60;;;;;;10902332;32;20393;-71
2022/07/22 17:14:16;;;;;;;10.63;9.30;;;38.30;28.70;;;;;;10906132;32;20402;-71
2022/07/22 17:20:18;;;;;;;13.55;10.38;;;38.20;29.10;;;;;;10900606;32;20040;-70
2022/07/22 17:26:22;;;;;;;9.70;8.70;;;38.10;29.00;;;;;;10904529;32;20039;-71
2022/07/22 17:32:24;;;;;;;9.73;7.97;;;38.10;28.90;;;;;;10904338;32;20418;-71
2022/07/22 17:38:26;;;;;;;9.10;7.62;;;38.00;29.00;;;;;;10904291;32;20023;-71
2022/07/22 17:44:29;;;;;;;8.80;7.47;;;37.90;29.00;;;;;;10903844;32;20035;-71
2022/07/22 17:50:37;;;;;;;9.98;6.15;;;38.00;29.00;;;;;;10890796;32;20038;-72
2022/07/22 17:56:40;;;;;;;7.50;5.68;;;38.60;28.60;;;;;;10904161;32;20019;-71
2022/07/22 18:02:45;;;;;;;7.57;4.95;;;39.30;27.90;;;;;;10903872;32;20062;-72
2022/07/22 18:08:47;;;;;;;4.90;3.97;;;39.80;27.70;;;;;;10890569;32;20054;-72
2022/07/22 18:14:49;;;;;;;4.68;3.87;;;39.70;28.00;;;;;;10903765;32;20024;-72
2022/07/22 18:20:52;;;;;;;7.65;3.90;;;38.70;29.10;;;;;;10894997;32;20035;-72
2022/07/22 18:26:54;;;;;;;5.78;3.95;;;37.90;30.00;;;;;;10910548;32;20039;-72
2022/07/22 18:32:56;;;;;;;5.10;3.75;;;37.40;30.60;;;;;;10910523;32;20027;-72
2022/07/22 18:38:58;;;;;;;7.22;4.35;;;36.90;31.10;;;;;;10910310;32;20023;-72
2022/07/22 18:45:01;;;;;;;4.97;3.17;;;36.60;31.70;;;;;;10910287;32;20062;-72
2022/07/22 18:51:04;;;;;;;4.35;3.20;;;36.30;32.40;;;;;;10910041;32;20049;-72
2022/07/22 18:57:06;;;;;;;4.97;3.42;;;36.10;32.90;;;;;;10895813;32;20351;-72
2022/07/22 19:03:08;;;;;;;5.72;3.58;;;35.90;33.20;;;;;;10909339;32;20027;-72
2022/07/22 19:09:11;;;;;;;7.70;3.62;;;35.80;33.60;;;;;;10909341;32;20024;-72
2022/07/22 19:15:13;;;;;;;9.35;3.33;;;35.50;34.10;;;;;;10909063;32;20027;-72
2022/07/22 19:21:15;;;;;;;5.80;3.60;;;35.40;34.40;;;;;;10908892;32;20062;-72
2022/07/22 19:27:17;;;;;;;7.30;2.92;;;35.30;34.90;;;;;;10906192;32;20433;-72
2022/07/22 19:33:19;;;;;;;4.45;2.55;;;35.20;35.30;;;;;;10908136;32;20046;-72
2022/07/22 19:39:21;;;;;;;8.82;3.95;;;35.00;35.60;;;;;;10908129;32;20376;-72
2022/07/22 19:45:38;;;;;;;;;;;34.90;36.60;;;;;;10908196;32;20069;-72
2022/07/22 19:51:40;;;;;;;9.20;4.00;;;34.60;37.80;;;;;;10907840;32;19941;-72
2022/07/22 19:57:42;;;;;;;5.53;3.95;;;34.60;38.00;;;;;;10907632;32;20319;-72
2022/07/22 20:03:44;;;;;;;4.68;2.87;;;34.50;38.10;;;;;;10907366;32;20336;-72
2022/07/22 20:09:46;;;;;;;5.70;4.18;;;34.40;38.40;;;;;;10907202;32;20085;-72
2022/07/22 20:15:48;;;;;;;5.00;3.78;;;34.30;38.60;;;;;;10906853;32;20045;-72
2022/07/22 20:21:50;;;;;;;5.95;3.90;;;34.20;39.00;;;;;;10893459;32;20042;-72
2022/07/22 20:27:53;;;;;;;6.18;3.83;;;34.20;39.20;;;;;;10530948;27;11880877;-72
2022/07/22 20:33:55;;;;;;;6.25;3.50;;;34.10;39.40;;;;;;10827347;32;20020;-72
2022/07/22 20:39:57;;;;;;;5.62;3.78;;;34.10;39.90;;;;;;10816947;32;20024;-72
2022/07/22 20:45:59;;;;;;;5.95;4.62;;;34.00;40.10;;;;;;10825884;32;20348;-72
2022/07/22 20:52:03;;;;;;;7.20;4.35;;;33.80;41.40;;;;;;10827912;32;20050;-72
2022/07/22 20:58:05;;;;;;;11.20;4.95;;;33.70;42.60;;;;;;10866414;32;20032;-72
2022/07/22 21:04:07;;;;;;;6.45;4.70;;;33.60;43.60;;;;;;10867844;32;20050;-72
2022/07/22 21:10:09;;;;;;;6.70;5.22;;;33.50;43.60;;;;;;10867941;32;20347;-72
2022/07/22 21:16:11;;;;;;;5.60;4.50;;;33.40;44.30;;;;;;10867717;32;20042;-72
2022/07/22 21:22:13;;;;;;;5.70;4.40;;;33.30;44.90;;;;;;10867254;32;20348;-72
2022/07/22 21:28:15;;;;;;;8.50;5.12;;;33.30;44.80;;;;;;10867368;32;20487;-72
2022/07/22 21:34:17;;;;;;;6.80;4.80;;;33.20;45.30;;;;;;10867243;32;20027;-72
2022/07/22 21:40:20;;;;;;;6.00;4.35;;;33.10;45.90;;;;;;10867246;32;20020;-72
2022/07/22 21:46:22;;;;;;;6.80;4.70;;;33.10;45.90;;;;;;10867043;32;20069;-72
2022/07/22 21:52:24;;;;;;;6.72;5.07;;;32.90;46.00;;;;;;10868895;32;20024;-72
2022/07/22 21:58:26;;;;;;;7.47;5.72;;;32.80;46.30;;;;;;10874659;32;20332;-72
2022/07/22 22:04:29;;;;;;;6.43;4.65;;;32.80;47.30;;;;;;10874248;32;20388;-72
2022/07/22 22:10:32;;;;;;;12.00;5.72;;;32.70;47.70;;;;;;10874113;32;20024;-72
2022/07/22 22:16:35;;;;;;;6.78;5.05;;;32.70;47.70;;;;;;10873663;32;20058;-72
2022/07/22 22:22:37;;;;;;;7.15;5.70;;;32.50;47.80;;;;;;10873576;32;20057;-71
2022/07/22 22:28:39;;;;;;;7.20;5.40;;;32.40;48.30;;;;;;10873381;32;20019;-71
2022/07/22 22:34:40;;;;;;;7.85;6.32;;;32.30;49.20;;;;;;10873319;32;20356;-71
2022/07/22 22:40:43;;;;;;;7.12;5.35;;;32.30;49.60;;;;;;10871957;32;20058;-71
2022/07/22 22:46:45;;;;;;;6.93;4.85;;;32.20;49.40;;;;;;10868674;32;20030;-71
2022/07/22 22:52:47;;;;;;;6.22;4.62;;;32.20;49.40;;;;;;10872770;32;20019;-71
2022/07/22 22:58:49;;;;;;;11.00;5.32;;;32.10;49.40;;;;;;10868394;32;20023;-71
2022/07/22 23:04:51;;;;;;;6.10;4.93;;;32.00;49.50;;;;;;10867357;32;20058;-71
2022/07/22 23:10:53;;;;;;;7.18;4.68;;;31.90;49.50;;;;;;10870891;32;20388;-71
2022/07/22 23:16:55;;;;;;;4.95;3.83;;;31.90;49.50;;;;;;10867736;32;20016;-71
2022/07/22 23:22:57;;;;;;;6.30;4.72;;;31.80;49.60;;;;;;10871580;32;20023;-71
2022/07/22 23:28:59;;;;;;;7.50;4.07;;;31.80;49.70;;;;;;10869174;32;20016;-71
2022/07/22 23:35:01;;;;;;;5.60;4.07;;;31.70;49.80;;;;;;10867054;32;20399;-71
2022/07/22 23:41:03;;;;;;;6.70;4.97;;;31.70;49.80;;;;;;10870598;32;20020;-71
2022/07/22 23:47:05;;;;;;;7.95;5.97;;;31.60;50.10;;;;;;10870725;32;20020;-71
2022/07/22 23:53:07;;;;;;;7.28;5.22;;;31.60;50.10;;;;;;10870638;32;20011;-71
2022/07/22 23:59:09;;;;;;;8.30;4.87;;;31.50;50.30;;;;;;10870413;32;20023;-71
